sensor_id;sensor_type;location;lat;lon;timestamp;pressure;altitude;pressure_sealevel;temperature;humidity
42603;BME280;28233;55.748;48.752;2024-03-23T00:54:28;98831.59;;;-1.40;65.55
42603;BME280;28233;55.748;48.752;2024-03-23T00:56:29;98834.28;;;-1.40;65.60
42603;BME280;28233;55.748;48.752;2024-03-23T00:58:31;98831.03;;;-1.42;66.05
42603;BME280;28233;55.748;48.752;2024-03-23T01:00:32;98823.97;;;-1.49;65.75
42603;BME280;28233;55.748;48.752;2024-03-23T01:02:34;98822.91;;;-1.53;65.80
42603;BME280;28233;55.748;48.752;2024-03-23T01:04:35;98827.44;;;-1.53;66.33
42603;BME280;28233;55.748;48.752;2024-03-23T01:06:37;98835.53;;;-1.53;66.41
42603;BME280;28233;55.748;48.752;2024-03-23T01:08:39;98832.31;;;-1.55;66.11
42603;BME280;28233;55.748;48.752;2024-03-23T01:10:40;98821.78;;;-1.57;66.03
42603;BME280;28233;55.748;48.752;2024-03-23T01:12:42;98824.22;;;-1.55;66.23
42603;BME280;28233;55.748;48.752;2024-03-23T01:14:44;98825.28;;;-1.56;66.33
42603;BME280;28233;55.748;48.752;2024-03-23T01:16:45;98819.34;;;-1.58;66.06
42603;BME280;28233;55.748;48.752;2024-03-23T01:18:47;98822.84;;;-1.58;66.88
42603;BME280;28233;55.748;48.752;2024-03-23T01:20:49;98823.63;;;-1.62;66.46
42603;BME280;28233;55.748;48.752;2024-03-23T01:22:51;98830.09;;;-1.63;66.53
42603;BME280;28233;55.748;48.752;2024-03-23T01:24:53;98808.75;;;-1.70;66.50
42603;BME280;28233;55.748;48.752;2024-03-23T01:26:54;98803.94;;;-1.68;66.94
42603;BME280;28233;55.748;48.752;2024-03-23T01:28:56;98806.09;;;-1.65;66.77
42603;BME280;28233;55.748;48.752;2024-03-23T01:30:58;98797.72;;;-1.68;67.58
42603;BME280;28233;55.748;48.752;2024-03-23T01:32:59;98803.09;;;-1.74;67.17
42603;BME280;28233;55.748;48.752;2024-03-23T01:35:01;98785.81;;;-1.78;67.06
42603;BME280;28233;55.748;48.752;2024-03-23T01:37:03;98801.75;;;-1.71;66.98
42603;BME280;28233;55.748;48.752;2024-03-23T01:39:06;98790.13;;;-1.77;67.18
42603;BME280;28233;55.748;48.752;2024-03-23T01:41:10;98810.41;;;-1.69;67.20
42603;BME280;28233;55.748;48.752;2024-03-23T01:43:12;98806.63;;;-1.68;67.07
42603;BME280;28233;55.748;48.752;2024-03-23T01:45:14;98797.47;;;-1.67;67.14
42603;BME280;28233;55.748;48.752;2024-03-23T01:47:15;98806.09;;;-1.65;66.94
42603;BME280;28233;55.748;48.752;2024-03-23T01:49:17;98799.09;;;-1.66;67.20
42603;BME280;28233;55.748;48.752;2024-03-23T01:51:19;98800.69;;;-1.65;66.79
42603;BME280;28233;55.748;48.752;2024-03-23T01:53:20;98795.03;;;-1.68;66.93
42603;BME280;28233;55.748;48.752;2024-03-23T01:55:24;98796.97;;;-1.64;67.00
42603;BME280;28233;55.748;48.752;2024-03-23T01:57:26;98798.28;;;-1.66;67.03
42603;BME280;28233;55.748;48.752;2024-03-23T01:59:27;98793.94;;;-1.73;67.00
42603;BME280;28233;55.748;48.752;2024-03-23T02:01:29;98785.50;;;-1.81;67.53
42603;BME280;28233;55.748;48.752;2024-03-23T02:03:31;98789.06;;;-1.76;67.23
42603;BME280;28233;55.748;48.752;2024-03-23T02:05:33;98789.88;;;-1.75;67.69
42603;BME280;28233;55.748;48.752;2024-03-23T02:07:34;98782.81;;;-1.81;67.68
42603;BME280;28233;55.748;48.752;2024-03-23T02:09:36;98794.16;;;-1.79;67.36
42603;BME280;28233;55.748;48.752;2024-03-23T02:11:37;98793.59;;;-1.81;67.57
42603;BME280;28233;55.748;48.752;2024-03-23T02:13:39;98785.50;;;-1.81;67.65
42603;BME280;28233;55.748;48.752;2024-03-23T02:15:42;98784.72;;;-1.82;67.54
42603;BME280;28233;55.748;48.752;2024-03-23T02:18:03;98778.50;;;-1.82;68.10
42603;BME280;28233;55.748;48.752;2024-03-23T02:20:05;98770.13;;;-1.86;67.94
42603;BME280;28233;55.748;48.752;2024-03-23T02:22:08;98780.66;;;-1.84;67.87
42603;BME280;28233;55.748;48.752;2024-03-23T02:24:11;98777.97;;;-1.84;68.15
42603;BME280;28233;55.748;48.752;2024-03-23T02:26:13;98772.56;;;-1.84;68.15
42603;BME280;28233;55.748;48.752;2024-03-23T02:28:16;98773.91;;;-1.87;68.50
42603;BME280;28233;55.748;48.752;2024-03-23T02:30:20;98785.22;;;-1.85;68.16
42603;BME280;28233;55.748;48.752;2024-03-23T02:32:22;98769.88;;;-1.84;68.10
42603;BME280;28233;55.748;48.752;2024-03-23T02:34:24;98775.50;;;-1.86;68.39
42603;BME280;28233;55.748;48.752;2024-03-23T02:36:26;98773.66;;;-1.85;68.43
42603;BME280;28233;55.748;48.752;2024-03-23T02:38:28;98776.59;;;-1.87;68.52
42603;BME280;28233;55.748;48.752;2024-03-23T02:40:29;98772.00;;;-1.86;68.38
42603;BME280;28233;55.748;48.752;2024-03-23T02:42:31;98768.00;;;-1.84;68.16
42603;BME280;28233;55.748;48.752;2024-03-23T02:44:33;98759.34;;;-1.86;68.15
42603;BME280;28233;55.748;48.752;2024-03-23T02:46:34;98764.75;;;-1.86;68.20
42603;BME280;28233;55.748;48.752;2024-03-23T02:48:36;98763.94;;;-1.86;68.43
42603;BME280;28233;55.748;48.752;2024-03-23T02:50:38;98768.00;;;-1.84;68.13
42603;BME280;28233;55.748;48.752;2024-03-23T02:52:39;98759.91;;;-1.84;68.19
42603;BME280;28233;55.748;48.752;2024-03-23T02:54:41;98765.06;;;-1.82;68.17
42603;BME280;28233;55.748;48.752;2024-03-23T02:56:46;98756.16;;;-1.83;68.17
42603;BME280;28233;55.748;48.752;2024-03-23T02:58:48;98763.72;;;-1.80;67.52
42603;BME280;28233;55.748;48.752;2024-03-23T03:00:50;98756.75;;;-1.76;67.68
42603;BME280;28233;55.748;48.752;2024-03-23T03:02:52;98760.00;;;-1.74;67.39
42603;BME280;28233;55.748;48.752;2024-03-23T03:04:53;98751.38;;;-1.76;67.68
42603;BME280;28233;55.748;48.752;2024-03-23T03:06:55;98761.09;;;-1.70;67.37
42603;BME280;28233;55.748;48.752;2024-03-23T03:08:57;98746.56;;;-1.68;67.47
42603;BME280;28233;55.748;48.752;2024-03-23T03:10:59;98741.44;;;-1.65;67.27
42603;BME280;28233;55.748;48.752;2024-03-23T03:13:00;98756.81;;;-1.65;66.72
42603;BME280;28233;55.748;48.752;2024-03-23T03:15:03;98746.03;;;-1.65;66.76
42603;BME280;28233;55.748;48.752;2024-03-23T03:17:06;98743.63;;;-1.62;66.48
42603;BME280;28233;55.748;48.752;2024-03-23T03:19:08;98739.06;;;-1.56;66.60
42603;BME280;28233;55.748;48.752;2024-03-23T03:21:12;98741.53;;;-1.50;66.40
42603;BME280;28233;55.748;48.752;2024-03-23T03:23:14;98736.47;;;-1.41;65.79
42603;BME280;28233;55.748;48.752;2024-03-23T03:25:15;98735.97;;;-1.33;65.58
42603;BME280;28233;55.748;48.752;2024-03-23T03:27:17;98727.88;;;-1.33;65.31
42603;BME280;28233;55.748;48.752;2024-03-23T03:29:19;98734.38;;;-1.23;65.16
42603;BME280;28233;55.748;48.752;2024-03-23T03:31:20;98730.63;;;-1.17;64.75
42603;BME280;28233;55.748;48.752;2024-03-23T03:33:22;98734.41;;;-1.13;64.79
42603;BME280;28233;55.748;48.752;2024-03-23T03:35:23;98731.72;;;-1.13;64.38
42603;BME280;28233;55.748;48.752;2024-03-23T03:37:25;98726.31;;;-1.13;64.52
42603;BME280;28233;55.748;48.752;2024-03-23T03:39:27;98724.97;;;-1.11;64.13
42603;BME280;28233;55.748;48.752;2024-03-23T03:41:29;98730.41;;;-1.00;63.99
42603;BME280;28233;55.748;48.752;2024-03-23T03:43:30;98725.03;;;-0.95;64.08
42603;BME280;28233;55.748;48.752;2024-03-23T03:45:32;98713.44;;;-0.96;63.18
42603;BME280;28233;55.748;48.752;2024-03-23T03:47:33;98726.16;;;-0.81;63.37
42603;BME280;28233;55.748;48.752;2024-03-23T03:49:35;98723.75;;;-0.72;63.23
42603;BME280;28233;55.748;48.752;2024-03-23T03:51:37;98714.03;;;-0.68;62.42
42603;BME280;28233;55.748;48.752;2024-03-23T03:53:38;98710.00;;;-0.60;62.37
42603;BME280;28233;55.748;48.752;2024-03-23T03:55:40;98710.25;;;-0.57;62.09
42603;BME280;28233;55.748;48.752;2024-03-23T03:57:42;98716.19;;;-0.50;61.51
42603;BME280;28233;55.748;48.752;2024-03-23T03:59:43;98713.78;;;-0.46;61.79
42603;BME280;28233;55.748;48.752;2024-03-23T04:01:45;98715.94;;;-0.48;60.90
42603;BME280;28233;55.748;48.752;2024-03-23T04:03:47;98720.25;;;-0.47;61.43
42603;BME280;28233;55.748;48.752;2024-03-23T04:05:54;98713.00;;;-0.47;60.95
42603;BME280;28233;55.748;48.752;2024-03-23T04:07:56;98719.19;;;-0.41;61.14
42603;BME280;28233;55.748;48.752;2024-03-23T04:09:59;98716.78;;;-0.37;60.80
42603;BME280;28233;55.748;48.752;2024-03-23T04:12:00;98712.19;;;-0.37;60.90
42603;BME280;28233;55.748;48.752;2024-03-23T04:14:02;98722.41;;;-0.34;60.68
42603;BME280;28233;55.748;48.752;2024-03-23T04:16:04;98720.56;;;-0.28;59.96
42603;BME280;28233;55.748;48.752;2024-03-23T04:18:06;98713.78;;;-0.20;60.06
42603;BME280;28233;55.748;48.752;2024-03-23T04:20:08;98714.59;;;-0.20;59.53
42603;BME280;28233;55.748;48.752;2024-03-23T04:22:10;98718.38;;;-0.16;59.38
42603;BME280;28233;55.748;48.752;2024-03-23T04:24:12;98723.22;;;-0.08;59.78
42603;BME280;28233;55.748;48.752;2024-03-23T04:26:14;98716.47;;;-0.05;59.35
42603;BME280;28233;55.748;48.752;2024-03-23T04:28:16;98712.97;;;-0.06;58.54
42603;BME280;28233;55.748;48.752;2024-03-23T04:30:18;98711.59;;;0.02;58.94
42603;BME280;28233;55.748;48.752;2024-03-23T04:32:20;98697.03;;;-0.02;58.49
42603;BME280;28233;55.748;48.752;2024-03-23T04:34:22;98705.91;;;0.14;58.46
42603;BME280;28233;55.748;48.752;2024-03-23T04:36:24;98694.84;;;0.15;58.23
42603;BME280;28233;55.748;48.752;2024-03-23T04:38:26;98705.09;;;0.24;58.34
42603;BME280;28233;55.748;48.752;2024-03-23T04:40:28;98706.44;;;0.31;58.09
42603;BME280;28233;55.748;48.752;2024-03-23T04:42:30;98699.91;;;0.37;57.61
42603;BME280;28233;55.748;48.752;2024-03-23T04:44:32;98699.91;;;0.43;57.07
42603;BME280;28233;55.748;48.752;2024-03-23T04:46:34;98712.03;;;0.55;57.23
42603;BME280;28233;55.748;48.752;2024-03-23T04:48:36;98701.44;;;0.64;56.27
42603;BME280;28233;55.748;48.752;2024-03-23T04:50:38;98701.44;;;0.69;56.21
42603;BME280;28233;55.748;48.752;2024-03-23T04:52:39;98694.91;;;0.70;56.45
42603;BME280;28233;55.748;48.752;2024-03-23T04:54:41;98701.38;;;0.79;55.88
42603;BME280;28233;55.748;48.752;2024-03-23T04:56:43;98698.09;;;0.88;55.46
42603;BME280;28233;55.748;48.752;2024-03-23T04:58:45;98704.81;;;0.95;55.06
42603;BME280;28233;55.748;48.752;2024-03-23T05:00:47;98699.69;;;0.99;55.10
42603;BME280;28233;55.748;48.752;2024-03-23T05:02:49;98697.97;;;1.08;54.72
42603;BME280;28233;55.748;48.752;2024-03-23T05:04:50;98703.91;;;1.10;53.83
42603;BME280;28233;55.748;48.752;2024-03-23T05:06:52;98700.09;;;1.16;54.02
42603;BME280;28233;55.748;48.752;2024-03-23T05:08:53;98693.34;;;1.14;54.66
42603;BME280;28233;55.748;48.752;2024-03-23T05:10:55;98693.06;;;1.20;53.76
42603;BME280;28233;55.748;48.752;2024-03-23T05:12:57;98687.03;;;1.29;53.86
42603;BME280;28233;55.748;48.752;2024-03-23T05:14:58;98682.41;;;1.34;53.47
42603;BME280;28233;55.748;48.752;2024-03-23T05:17:00;98682.91;;;1.41;53.70
42603;BME280;28233;55.748;48.752;2024-03-23T05:19:02;98692.31;;;1.49;54.03
42603;BME280;28233;55.748;48.752;2024-03-23T05:21:04;98687.94;;;1.53;52.60
42603;BME280;28233;55.748;48.752;2024-03-23T05:23:05;98685.25;;;1.53;52.66
42603;BME280;28233;55.748;48.752;2024-03-23T05:25:07;98680.06;;;1.57;53.17
42603;BME280;28233;55.748;48.752;2024-03-23T05:27:11;98673.78;;;1.61;53.82
42603;BME280;28233;55.748;48.752;2024-03-23T05:29:12;98679.47;;;1.60;53.07
42603;BME280;28233;55.748;48.752;2024-03-23T05:31:26;98676.78;;;1.60;52.44
42603;BME280;28233;55.748;48.752;2024-03-23T05:33:28;98676.22;;;1.63;53.00
42603;BME280;28233;55.748;48.752;2024-03-23T05:35:29;98673.78;;;1.61;52.74
42603;BME280;28233;55.748;48.752;2024-03-23T05:37:31;98678.88;;;1.68;52.83
42603;BME280;28233;55.748;48.752;2024-03-23T05:39:35;98676.34;;;1.82;52.09
42603;BME280;28233;55.748;48.752;2024-03-23T05:41:37;98670.88;;;1.87;51.29
42603;BME280;28233;55.748;48.752;2024-03-23T05:43:38;98668.03;;;2.02;51.10
42603;BME280;28233;55.748;48.752;2024-03-23T05:45:40;98666.34;;;2.06;50.70
42603;BME280;28233;55.748;48.752;2024-03-23T05:47:41;98665.38;;;2.21;50.60
42603;BME280;28233;55.748;48.752;2024-03-23T05:49:43;98662.63;;;2.26;50.42
42603;BME280;28233;55.748;48.752;2024-03-23T05:51:47;98650.47;;;2.19;50.12
42603;BME280;28233;55.748;48.752;2024-03-23T05:53:49;98656.41;;;2.26;50.14
42603;BME280;28233;55.748;48.752;2024-03-23T05:56:00;98657.75;;;2.23;49.73
42603;BME280;28233;55.748;48.752;2024-03-23T05:58:02;98645.56;;;2.26;49.87
42603;BME280;28233;55.748;48.752;2024-03-23T06:00:04;98652.06;;;2.25;49.21
42603;BME280;28233;55.748;48.752;2024-03-23T06:02:06;98649.81;;;2.32;49.45
42603;BME280;28233;55.748;48.752;2024-03-23T06:04:07;98642.13;;;2.39;49.85
42603;BME280;28233;55.748;48.752;2024-03-23T06:06:09;98642.59;;;2.46;49.37
42603;BME280;28233;55.748;48.752;2024-03-23T06:08:13;98637.75;;;2.43;48.67
42603;BME280;28233;55.748;48.752;2024-03-23T06:10:15;98649.13;;;2.45;49.13
42603;BME280;28233;55.748;48.752;2024-03-23T06:12:17;98649.91;;;2.46;48.65
42603;BME280;28233;55.748;48.752;2024-03-23T06:14:19;98642.06;;;2.44;48.44
42603;BME280;28233;55.748;48.752;2024-03-23T06:16:20;98644.16;;;2.52;48.79
42603;BME280;28233;55.748;48.752;2024-03-23T06:18:24;98648.88;;;2.66;48.41
42603;BME280;28233;55.748;48.752;2024-03-23T06:20:26;98651.28;;;2.67;47.59
42603;BME280;28233;55.748;48.752;2024-03-23T06:22:28;98641.22;;;2.68;47.54
42603;BME280;28233;55.748;48.752;2024-03-23T06:24:29;98649.97;;;2.84;47.75
42603;BME280;28233;55.748;48.752;2024-03-23T06:26:31;98635.63;;;3.02;47.05
42603;BME280;28233;55.748;48.752;2024-03-23T06:28:33;98644.00;;;3.06;46.62
42603;BME280;28233;55.748;48.752;2024-03-23T06:30:34;98636.84;;;3.10;46.10
42603;BME280;28233;55.748;48.752;2024-03-23T06:32:36;98643.47;;;3.04;46.72
42603;BME280;28233;55.748;48.752;2024-03-23T06:34:37;98640.25;;;3.02;46.49
42603;BME280;28233;55.748;48.752;2024-03-23T06:36:39;98631.22;;;3.06;46.40
42603;BME280;28233;55.748;48.752;2024-03-23T06:38:40;98639.72;;;3.18;46.39
42603;BME280;28233;55.748;48.752;2024-03-23T06:40:42;98632.66;;;3.36;45.81
42603;BME280;28233;55.748;48.752;2024-03-23T06:42:43;98639.66;;;3.56;45.58
42603;BME280;28233;55.748;48.752;2024-03-23T06:44:45;98630.16;;;3.73;44.87
42603;BME280;28233;55.748;48.752;2024-03-23T06:46:47;98629.44;;;3.67;44.51
42603;BME280;28233;55.748;48.752;2024-03-23T06:48:50;98637.28;;;3.69;44.67
42603;BME280;28233;55.748;48.752;2024-03-23T06:50:58;98630.66;;;3.75;44.08
42603;BME280;28233;55.748;48.752;2024-03-23T06:52:59;98621.91;;;3.78;44.26
42603;BME280;28233;55.748;48.752;2024-03-23T06:55:03;98628.75;;;3.75;44.29
42603;BME280;28233;55.748;48.752;2024-03-23T06:57:06;98629.81;;;3.60;44.23
42603;BME280;28233;55.748;48.752;2024-03-23T06:59:08;98620.50;;;3.48;44.45
42603;BME280;28233;55.748;48.752;2024-03-23T07:01:10;98619.09;;;3.50;44.85
42603;BME280;28233;55.748;48.752;2024-03-23T07:03:12;98614.13;;;3.57;44.51
42603;BME280;28233;55.748;48.752;2024-03-23T07:05:14;98616.44;;;3.64;44.65
42603;BME280;28233;55.748;48.752;2024-03-23T07:07:16;98617.13;;;3.56;44.09
42603;BME280;28233;55.748;48.752;2024-03-23T07:09:17;98614.84;;;3.63;44.34
42603;BME280;28233;55.748;48.752;2024-03-23T07:11:21;98615.47;;;3.88;44.10
42603;BME280;28233;55.748;48.752;2024-03-23T07:13:23;98617.03;;;4.08;43.90
42603;BME280;28233;55.748;48.752;2024-03-23T07:15:25;98616.31;;;4.30;43.20
42603;BME280;28233;55.748;48.752;2024-03-23T07:17:27;98618.25;;;4.43;42.50
42603;BME280;28233;55.748;48.752;2024-03-23T07:19:28;98607.53;;;4.60;42.79
42603;BME280;28233;55.748;48.752;2024-03-23T07:21:30;98608.50;;;4.78;42.34
42603;BME280;28233;55.748;48.752;2024-03-23T07:23:32;98608.41;;;4.70;41.99
42603;BME280;28233;55.748;48.752;2024-03-23T07:25:34;98608.13;;;4.71;42.45
42603;BME280;28233;55.748;48.752;2024-03-23T07:27:36;98604.28;;;4.72;42.02
42603;BME280;28233;55.748;48.752;2024-03-23T07:29:37;98601.84;;;4.84;42.03
42603;BME280;28233;55.748;48.752;2024-03-23T07:31:39;98601.44;;;4.77;41.44
42603;BME280;28233;55.748;48.752;2024-03-23T07:33:46;98602.56;;;4.76;41.91
42603;BME280;28233;55.748;48.752;2024-03-23T07:35:47;98599.31;;;4.88;41.68
42603;BME280;28233;55.748;48.752;2024-03-23T07:37:49;98585.38;;;5.03;41.51
42603;BME280;28233;55.748;48.752;2024-03-23T07:39:51;98591.38;;;5.14;41.05
42603;BME280;28233;55.748;48.752;2024-03-23T07:41:52;98598.72;;;5.14;41.16
42603;BME280;28233;55.748;48.752;2024-03-23T07:43:54;98590.56;;;5.14;41.59
42603;BME280;28233;55.748;48.752;2024-03-23T07:45:56;98585.38;;;5.26;41.88
42603;BME280;28233;55.748;48.752;2024-03-23T07:47:57;98586.28;;;5.21;41.30
42603;BME280;28233;55.748;48.752;2024-03-23T07:49:59;98583.75;;;5.25;41.04
42603;BME280;28233;55.748;48.752;2024-03-23T07:52:00;98581.97;;;5.20;41.07
42603;BME280;28233;55.748;48.752;2024-03-23T07:54:02;98579.25;;;5.20;41.11
42603;BME280;28233;55.748;48.752;2024-03-23T07:56:08;98567.91;;;5.04;40.67
42603;BME280;28233;55.748;48.752;2024-03-23T07:58:11;98573.91;;;4.93;41.01
42603;BME280;28233;55.748;48.752;2024-03-23T08:00:13;98568.03;;;4.99;41.57
42603;BME280;28233;55.748;48.752;2024-03-23T08:02:15;98556.50;;;4.80;41.06
42603;BME280;28233;55.748;48.752;2024-03-23T08:04:16;98561.47;;;4.64;41.62
42603;BME280;28233;55.748;48.752;2024-03-23T08:06:19;98549.13;;;4.44;41.85
42603;BME280;28233;55.748;48.752;2024-03-23T08:08:23;98556.97;;;4.45;42.28
42603;BME280;28233;55.748;48.752;2024-03-23T08:10:24;98560.78;;;4.58;41.94
42603;BME280;28233;55.748;48.752;2024-03-23T08:12:26;98560.78;;;4.58;41.64
42603;BME280;28233;55.748;48.752;2024-03-23T08:14:28;98552.44;;;4.55;41.81
42603;BME280;28233;55.748;48.752;2024-03-23T08:16:30;98551.53;;;4.59;41.63
42603;BME280;28233;55.748;48.752;2024-03-23T08:18:31;98538.38;;;4.75;41.49
42603;BME280;28233;55.748;48.752;2024-03-23T08:20:33;98535.28;;;4.68;41.55
42603;BME280;28233;55.748;48.752;2024-03-23T08:22:35;98539.44;;;4.88;41.49
42603;BME280;28233;55.748;48.752;2024-03-23T08:24:37;98537.00;;;4.86;41.28
42603;BME280;28233;55.748;48.752;2024-03-23T08:26:39;98535.59;;;4.89;40.97
42603;BME280;28233;55.748;48.752;2024-03-23T08:28:41;98541.03;;;4.89;41.66
42603;BME280;28233;55.748;48.752;2024-03-23T08:30:43;98531.91;;;4.85;41.54
42603;BME280;28233;55.748;48.752;2024-03-23T08:32:47;98533.69;;;4.90;41.56
42603;BME280;28233;55.748;48.752;2024-03-23T08:34:48;98528.03;;;4.86;41.49
42603;BME280;28233;55.748;48.752;2024-03-23T08:36:50;98523.47;;;4.95;41.75
42603;BME280;28233;55.748;48.752;2024-03-23T08:38:52;98527.63;;;4.93;42.95
42603;BME280;28233;55.748;48.752;2024-03-23T08:40:59;98517.03;;;5.14;42.53
42603;BME280;28233;55.748;48.752;2024-03-23T08:43:01;98518.34;;;5.39;41.70
42603;BME280;28233;55.748;48.752;2024-03-23T08:45:03;98509.47;;;5.33;41.45
42603;BME280;28233;55.748;48.752;2024-03-23T08:47:05;98515.19;;;5.23;42.20
42603;BME280;28233;55.748;48.752;2024-03-23T08:49:07;98504.06;;;5.11;42.43
42603;BME280;28233;55.748;48.752;2024-03-23T08:51:09;98510.66;;;5.18;42.59
42603;BME280;28233;55.748;48.752;2024-03-23T08:53:11;98501.94;;;5.30;42.16
42603;BME280;28233;55.748;48.752;2024-03-23T08:55:13;98503.88;;;5.38;42.11
42603;BME280;28233;55.748;48.752;2024-03-23T08:57:15;98494.69;;;5.25;42.22
42603;BME280;28233;55.748;48.752;2024-03-23T08:59:16;98483.50;;;5.27;43.06
42603;BME280;28233;55.748;48.752;2024-03-23T09:01:18;98492.41;;;5.19;42.49
42603;BME280;28233;55.748;48.752;2024-03-23T09:03:19;98491.16;;;5.25;42.56
42603;BME280;28233;55.748;48.752;2024-03-23T09:05:21;98489.25;;;5.25;43.23
42603;BME280;28233;55.748;48.752;2024-03-23T09:07:23;98490.91;;;5.35;42.73
42603;BME280;28233;55.748;48.752;2024-03-23T09:09:24;98489.16;;;5.39;42.43
42603;BME280;28233;55.748;48.752;2024-03-23T09:11:27;98490.16;;;5.43;42.48
42603;BME280;28233;55.748;48.752;2024-03-23T09:13:29;98483.53;;;5.36;42.60
42603;BME280;28233;55.748;48.752;2024-03-23T09:15:52;98485.00;;;5.42;42.36
42603;BME280;28233;55.748;48.752;2024-03-23T09:18:01;98465.00;;;5.46;42.24
42603;BME280;28233;55.748;48.752;2024-03-23T09:20:05;98462.72;;;5.40;42.74
42603;BME280;28233;55.748;48.752;2024-03-23T09:22:06;98474.91;;;5.42;42.88
42603;BME280;28233;55.748;48.752;2024-03-23T09:24:08;98479.47;;;5.64;42.82
42603;BME280;28233;55.748;48.752;2024-03-23T09:26:10;98478.47;;;5.91;42.55
42603;BME280;28233;55.748;48.752;2024-03-23T09:28:12;98479.19;;;6.06;42.54
42603;BME280;28233;55.748;48.752;2024-03-23T09:30:14;98478.53;;;6.09;42.40
42603;BME280;28233;55.748;48.752;2024-03-23T09:32:15;98465.56;;;6.14;42.25
42603;BME280;28233;55.748;48.752;2024-03-23T09:34:17;98470.53;;;6.12;42.58
42603;BME280;28233;55.748;48.752;2024-03-23T09:36:19;98467.19;;;6.24;41.97
42603;BME280;28233;55.748;48.752;2024-03-23T09:38:20;98460.94;;;6.41;41.59
42603;BME280;28233;55.748;48.752;2024-03-23T09:40:22;98470.72;;;6.33;41.76
42603;BME280;28233;55.748;48.752;2024-03-23T09:42:24;98469.44;;;6.31;42.50
42603;BME280;28233;55.748;48.752;2024-03-23T09:44:25;98456.94;;;6.39;41.81
42603;BME280;28233;55.748;48.752;2024-03-23T09:46:30;98459.03;;;6.50;41.77
42603;BME280;28233;55.748;48.752;2024-03-23T09:48:36;98448.75;;;6.47;42.23
42603;BME280;28233;55.748;48.752;2024-03-23T09:50:43;98457.59;;;6.70;41.70
42603;BME280;28233;55.748;48.752;2024-03-23T09:52:48;98453.03;;;7.01;41.51
42603;BME280;28233;55.748;48.752;2024-03-23T09:54:50;98455.75;;;7.18;41.43
42603;BME280;28233;55.748;48.752;2024-03-23T09:56:52;98448.53;;;7.13;40.77
42603;BME280;28233;55.748;48.752;2024-03-23T09:59:03;98452.91;;;6.88;41.22
42603;BME280;28233;55.748;48.752;2024-03-23T10:01:05;98455.44;;;6.93;41.82
42603;BME280;28233;55.748;48.752;2024-03-23T10:03:08;98456.09;;;6.90;41.50
42603;BME280;28233;55.748;48.752;2024-03-23T10:05:22;98446.47;;;6.93;41.65
42603;BME280;28233;55.748;48.752;2024-03-23T10:07:25;98446.63;;;6.88;41.87
42603;BME280;28233;55.748;48.752;2024-03-23T10:09:30;98437.97;;;6.77;41.95
42603;BME280;28233;55.748;48.752;2024-03-23T10:11:31;98435.25;;;6.68;42.08
42603;BME280;28233;55.748;48.752;2024-03-23T10:13:33;98433.16;;;6.65;42.61
42603;BME280;28233;55.748;48.752;2024-03-23T10:15:36;98433.66;;;6.76;42.35
42603;BME280;28233;55.748;48.752;2024-03-23T10:17:38;98431.22;;;6.92;42.10
42603;BME280;28233;55.748;48.752;2024-03-23T10:19:41;98429.28;;;6.92;42.56
42603;BME280;28233;55.748;48.752;2024-03-23T10:21:52;98420.00;;;6.85;42.32
42603;BME280;28233;55.748;48.752;2024-03-23T10:23:54;98417.09;;;6.72;42.08
42603;BME280;28233;55.748;48.752;2024-03-23T10:26:11;98411.66;;;6.64;42.66
42603;BME280;28233;55.748;48.752;2024-03-23T10:28:13;98413.06;;;6.87;42.46
42603;BME280;28233;55.748;48.752;2024-03-23T10:30:16;98411.13;;;6.88;42.42
42603;BME280;28233;55.748;48.752;2024-03-23T10:32:18;98406.53;;;6.71;42.34
42603;BME280;28233;55.748;48.752;2024-03-23T10:34:26;98401.06;;;6.62;42.92
42603;BME280;28233;55.748;48.752;2024-03-23T10:36:29;98405.41;;;6.63;42.33
42603;BME280;28233;55.748;48.752;2024-03-23T10:38:32;98401.84;;;6.71;42.47
42603;BME280;28233;55.748;48.752;2024-03-23T10:40:34;98403.13;;;6.65;42.94
42603;BME280;28233;55.748;48.752;2024-03-23T10:42:38;98399.94;;;6.54;43.28
42603;BME280;28233;55.748;48.752;2024-03-23T10:44:40;98391.59;;;6.51;43.11
42603;BME280;28233;55.748;48.752;2024-03-23T10:46:41;98383.09;;;6.44;43.47
42603;BME280;28233;55.748;48.752;2024-03-23T10:48:43;98386.31;;;6.46;43.47
42603;BME280;28233;55.748;48.752;2024-03-23T10:50:45;98381.34;;;6.48;43.73
42603;BME280;28233;55.748;48.752;2024-03-23T10:52:47;98382.44;;;6.55;43.51
42603;BME280;28233;55.748;48.752;2024-03-23T10:54:51;98375.88;;;6.56;43.56
42603;BME280;28233;55.748;48.752;2024-03-23T10:57:15;98373.94;;;6.66;43.69
42603;BME280;28233;55.748;48.752;2024-03-23T10:59:19;98362.19;;;6.65;44.11
42603;BME280;28233;55.748;48.752;2024-03-23T11:01:21;98342.47;;;6.60;43.75
42603;BME280;28233;55.748;48.752;2024-03-23T11:03:39;98346.47;;;6.62;44.35
42603;BME280;28233;55.748;48.752;2024-03-23T11:05:50;98362.19;;;6.74;44.08
42603;BME280;28233;55.748;48.752;2024-03-23T11:07:53;98360.72;;;6.76;43.84
42603;BME280;28233;55.748;48.752;2024-03-23T11:09:56;98363.94;;;6.70;43.74
42603;BME280;28233;55.748;48.752;2024-03-23T11:11:58;98353.13;;;6.91;43.44
42603;BME280;28233;55.748;48.752;2024-03-23T11:14:00;98359.09;;;6.93;43.32
42603;BME280;28233;55.748;48.752;2024-03-23T11:16:24;98353.31;;;6.86;43.86
42603;BME280;28233;55.748;48.752;2024-03-23T11:18:29;98349.72;;;7.03;43.61
42603;BME280;28233;55.748;48.752;2024-03-23T11:20:32;98345.03;;;7.12;43.52
42603;BME280;28233;55.748;48.752;2024-03-23T11:22:41;98320.97;;;7.05;43.50
42603;BME280;28233;55.748;48.752;2024-03-23T11:24:50;98332.41;;;6.98;43.53
42603;BME280;28233;55.748;48.752;2024-03-23T11:26:51;98320.56;;;6.86;43.44
42603;BME280;28233;55.748;48.752;2024-03-23T11:29:09;98331.34;;;6.82;43.82
42603;BME280;28233;55.748;48.752;2024-03-23T11:31:12;98321.13;;;6.62;44.34
42603;BME280;28233;55.748;48.752;2024-03-23T11:33:14;98317.28;;;6.54;44.63
42603;BME280;28233;55.748;48.752;2024-03-23T11:37:29;98322.88;;;6.57;44.70
42603;BME280;28233;55.748;48.752;2024-03-23T11:39:31;98308.91;;;6.59;43.89
42603;BME280;28233;55.748;48.752;2024-03-23T11:41:33;98316.94;;;6.64;44.22
42603;BME280;28233;55.748;48.752;2024-03-23T11:43:34;98320.13;;;6.66;43.81